Latest Coastal Weather Observations for Esperance

IDW60701

Issued at 6:12 am WST Sunday 29 March 2015 (issued every 10 minutes, with the page automatically refreshed every 10 minutes)

About coastal observations | Map of coastal stations | Coastal observations for WA | Marine services | Other Formats
Station Details ID: 009789 Name: ESPERANCE Lat: -33.83 Lon: 121.89 Height: 25.0 m
Data from the previous 72 hours. | See also: Recent months at Esperance
Date/Time
WST
Temp

°C
Wind Pressure Rain
since 9am
mm
Weather Cloud Vis
km
Sea
Height
m
Swell
Dir
 
Speed
knots
Gust
knots
hPa Trend Height
m
Period
s
Dir
29/06:00am 11.7 NW 5 6 1022.8 R 0.0 Fog patches Mostly clear 15 - - - -
29/05:30am 12.2 WNW 5 6 1022.5 - 0.0 - - 10 - - - -
29/05:00am 12.7 W 5 6 1022.1 - 0.0 - - 10 - - - -
29/04:30am 12.9 W 5 6 1022.0 - 0.0 - - 10 - - - -
29/04:00am 13.0 WNW 5 6 1021.7 - 0.0 - - 10 - - - -
29/03:30am 13.3 NW 4 5 1021.5 - 0.0 - - 10 - - - -
29/03:00am 13.4 NW 5 6 1021.5 R 0.0 - Mostly clear 10 - - - -
29/02:30am 14.0 WNW 5 5 1021.5 - 0.0 - Partly cloudy 10 - - - -
29/02:00am 13.9 NW 4 5 1021.4 - 0.0 - Partly cloudy 10 - - - -
29/01:30am 13.5 NW 4 4 1021.5 - 0.0 - Partly cloudy 10 - - - -
29/01:00am 14.0 NW 4 6 1021.4 - 0.0 - Partly cloudy 10 - - - -
29/12:30am 14.2 WNW 4 4 1021.3 - 0.0 - Partly cloudy 10 - - - -
29/12:00am 14.4 N 3 4 1021.2 R 0.0 - Mostly cloudy 10 - - - -
 
Date/Time
WST
Temp

°C
Wind Pressure Rain
since 9am
mm
Weather Cloud Vis
km
Sea
Height
m
Swell
Dir
 
Speed
knots
Gust
knots
hPa Trend Height
m
Period
s
Dir
28/11:30pm 14.9 NW 4 4 1021.2 - 0.0 - Partly cloudy 10 - - - -
28/11:00pm 15.0 NW 2 5 1021.2 - 0.0 - Partly cloudy 10 - - - -
28/10:30pm 15.2 CALM 0 0 1021.3 - 0.0 - Partly cloudy 10 - - - -
28/10:00pm 15.5 W 2 3 1021.5 - 0.0 - Partly cloudy 10 - - - -
28/09:30pm 16.2 W 2 3 1021.5 - 0.0 - Partly cloudy 10 - - - -
28/09:00pm 17.1 CALM 0 2 1021.5 R 0.0 - - 10 - - - -
28/08:30pm 17.5 CALM 0 1 1021.2 - 0.0 - - 10 - - - -
28/08:00pm 17.9 S 4 5 1020.9 - 0.0 - Mostly clear 10 - - - -
28/07:30pm 18.2 SSW 3 5 1020.9 - 0.0 - Mostly clear 10 - - - -
28/07:00pm 18.5 SSW 4 6 1020.5 - 0.0 - Partly cloudy 10 - - - -
28/06:30pm 18.8 SSW 4 5 1020.2 - 0.0 - Partly cloudy 10 - - - -
28/06:00pm 18.9 SSW 5 7 1020.0 R 0.0 Haze Partly cloudy 20 - - - -
28/05:30pm 19.4 S 7 8 1019.8 - 0.0 - Mostly clear 10 - - - -
28/05:00pm 19.9 SSW 8 16 1019.8 - 0.0 - Mostly clear 10 - - - -
28/04:30pm 20.3 S 10 14 1019.5 - 0.0 - Mostly clear 10 - - - -
28/04:00pm 20.7 S 11 17 1019.4 - 0.0 - Mostly clear 10 - - - -
28/03:30pm 21.4 SSW 11 15 1019.4 - 0.0 - Mostly clear 10 - - - -
28/03:00pm 21.7 S 11 19 1019.0 R 0.0 Haze Mostly clear 20 - - - -
28/02:30pm 22.2 SSW 12 17 1018.9 - 0.0 - Mostly clear 10 - - - -
28/02:00pm 22.5 SSW 11 16 1018.7 - 0.0 - Mostly clear 10 - - - -
28/01:30pm 22.9 SSW 10 15 1018.6 - 0.0 - Mostly clear 10 - - - -
28/01:00pm 22.7 SSE 11 15 1018.7 - 0.0 - Mostly clear 10 - - - -
28/12:30pm 22.5 S 11 14 1018.9 - 0.0 - Mostly clear 10 - - - -
28/12:00pm 22.5 S 11 14 1019.1 F 0.0 Fine Mostly clear 25 - - - -
28/11:30am 23.3 SSE 7 10 1019.4 - 0.0 - Mostly clear 10 - - - -
28/11:00am 22.6 SSW 8 12 1019.8 - 0.0 - Mostly clear 10 - - - -
28/10:30am 22.5 WSW 7 10 1020.0 - 0.0 - Mostly clear 10 - - - -
28/10:00am 21.5 SW 7 12 1020.1 - 0.0 - Mostly clear 10 - - - -
28/09:30am 21.2 W 7 9 1020.2 - 0.0 - Mostly clear 10 - - - -
28/09:00am 20.5 WNW 9 13 1020.3 F 0.0 Fine Mostly clear 35 - - - -
28/08:30am 19.3 NW 8 10 1020.1 - 0.0 - - 10 - - - -
28/08:00am 17.7 NW 5 8 1020.3 - 0.0 - - 10 - - - -
28/07:30am 15.0 N 3 4 1020.3 - 0.0 - - 10 - - - -
28/07:00am 13.0 N 3 4 1020.2 - 0.0 - - 10 - - - -
28/06:30am 12.0 NNW 3 4 1020.1 - 0.0 - - 10 - - - -
28/06:00am 11.7 N 5 6 1019.8 F 0.0 Fine Mostly clear 35 - - - -
28/05:30am 12.8 N 4 5 1019.6 - 0.0 - - 10 - - - -
28/05:00am 12.6 N 5 6 1019.3 - 0.0 - - 10 - - - -
28/04:30am 12.8 N 4 4 1018.9 - 0.0 - - 10 - - - -
28/04:00am 13.0 NNE 5 6 1018.8 - 0.0 - - 10 - - - -
28/03:30am 13.8 N 4 5 1018.9 - 0.0 - Partly cloudy 10 - - - -
28/03:00am 13.9 N 5 6 1019.0 F 0.0 - Cloudy 10 - - - -
28/02:30am 14.0 NNE 6 7 1018.8 - 0.0 - Partly cloudy 10 - - - -
28/02:00am 15.0 N 1 4 1019.3 - 0.0 - - 10 - - - -
28/01:30am 15.0 NNE 3 4 1019.2 - 0.0 - - 10 - - - -
28/01:00am 15.3 N 4 5 1019.5 - 0.0 - Partly cloudy 10 - - - -
28/12:30am 15.9 NNE 4 7 1019.4 - 0.0 - Cloudy 10 - - - -
28/12:00am 16.1 NNE 6 8 1019.7 F 0.0 - Cloudy 10 - - - -
 
Date/Time
WST
Temp

°C
Wind Pressure Rain
since 9am
mm
Weather Cloud Vis
km
Sea
Height
m
Swell
Dir
 
Speed
knots
Gust
knots
hPa Trend Height
m
Period
s
Dir
27/11:30pm 16.0 NNE 7 9 1019.9 - 0.0 - Partly cloudy 10 - - - -
27/11:00pm 16.4 N 9 13 1020.3 - 0.0 - Partly cloudy 10 - - - -
27/10:30pm 17.0 NNE 8 12 1020.6 - 0.0 - Cloudy 10 - - - -
27/10:00pm 17.4 NNE 9 15 1020.9 - 0.0 - Cloudy 10 - - - -
27/09:30pm 17.6 NNE 9 13 1021.1 - 0.0 - Cloudy 10 - - - -
27/09:00pm 17.5 NNE 9 13 1021.2 R 0.0 - Mostly cloudy 10 - - - -
27/08:30pm 16.4 NNE 6 8 1021.3 - 0.0 - Partly cloudy 10 - - - -
27/08:00pm 16.5 NNE 5 7 1021.1 - 0.0 - Partly cloudy 10 - - - -
27/07:30pm 17.2 NNE 6 7 1021.0 - 0.0 - - 10 - - - -
27/07:00pm 18.0 N 5 7 1020.7 - 0.0 - - 10 - - - -
27/06:30pm 18.7 NNE 7 10 1020.1 - 0.0 - - 10 - - - -
27/06:00pm 19.5 N 13 18 1019.9 F 0.0 Fine Partly cloudy 30 - - - -
27/05:30pm 21.0 NNE 13 17 1019.5 - 0.0 - Partly cloudy 10 - - - -
27/05:00pm 21.8 NNE 10 14 1019.6 - 0.0 - Partly cloudy 10 - - - -
27/04:30pm 22.2 NNE 10 14 1019.8 - 0.0 - - 10 - - - -
27/04:00pm 22.4 N 11 14 1020.0 - 0.0 - - 10 - - - -
27/03:30pm 22.7 N 13 19 1020.4 - 0.0 - - 10 - - - -
27/03:00pm 23.7 N 13 17 1020.4 F 0.0 Fine Mostly cloudy 30 - - - -
27/02:30pm 23.9 N 12 17 1020.5 - 0.0 - - 10 - - - -
27/02:00pm 25.7 NNE 11 16 1020.5 - 0.0 - - 10 - - - -
27/01:30pm 26.0 NNE 9 15 1020.8 - 0.0 - Partly cloudy 10 - - - -
27/01:00pm 25.2 NE 9 16 1021.3 - 0.0 - - 10 - - - -
27/12:30pm 25.4 NNE 11 19 1021.6 - 0.0 - - 10 - - - -
27/12:00pm 24.7 NNE 12 19 1022.0 F 0.0 Fine Partly cloudy 30 - - - -
27/11:30am 24.4 N 12 17 1022.8 - 0.0 - - 10 - - - -
27/11:00am 24.6 NNE 10 13 1023.4 - 0.0 - - 10 - - - -
27/10:30am 22.8 NNE 8 13 1023.8 - 0.0 - - 10 - - - -
27/10:00am 21.3 NNE 10 14 1024.4 - 0.0 - - 10 - - - -
27/09:30am 21.2 NNE 12 17 1024.8 - 0.0 - - 10 - - - -
27/09:00am 19.7 NNE 14 19 1025.1 F 0.0 Fine Partly cloudy 30 - - - -
27/08:30am 18.5 NNE 13 20 1025.3 - 0.0 - - 10 - - - -
27/08:00am 16.4 NNE 13 19 1025.3 - 0.0 - - 10 - - - -
27/07:30am 15.3 NNE 13 20 1025.5 - 0.0 - - 10 - - - -
27/07:00am 14.9 NNE 13 18 1025.4 - 0.0 - - 10 - - - -
27/06:30am 14.4 NNE 13 19 1025.4 - 0.0 - - 10 - - - -
27/06:00am 14.1 NNE 12 16 1025.6 F 0.0 Fine Mostly cloudy 30 - - - -
27/05:30am 14.0 NNE 11 16 1025.5 - 0.0 - - 10 - - - -
27/05:00am 14.0 NNE 11 16 1025.4 - 0.0 - - 10 - - - -
27/04:30am 13.9 NNE 11 15 1025.3 - 0.0 - - 10 - - - -
27/04:00am 14.0 NNE 11 14 1025.4 - 0.0 - - 10 - - - -
27/03:30am 14.1 NNE 12 17 1025.3 - 0.0 - - 10 - - - -
27/03:00am 14.1 NNE 11 15 1025.5 F 0.0 - - 10 - - - -
27/02:30am 13.6 NNE 7 11 1025.7 - 0.0 - - 10 - - - -
27/02:00am 13.0 NE 6 9 1026.0 - 0.0 - - 10 - - - -
27/01:30am 13.2 ENE 7 11 1026.1 - 0.0 - - 10 - - - -
27/01:00am 13.2 ENE 7 11 1026.3 - 0.0 - - 10 - - - -
27/12:30am 13.1 NE 7 9 1026.6 - 0.0 - - 10 - - - -
27/12:00am 13.3 ENE 5 7 1026.9 F 0.0 - - 10 - - - -
 
Date/Time
WST
Temp

°C
Wind Pressure Rain
since 9am
mm
Weather Cloud Vis
km
Sea
Height
m
Swell
Dir
 
Speed
knots
Gust
knots
hPa Trend Height
m
Period
s
Dir
26/11:30pm 13.5 E 5 7 1027.1 - 0.0 - - 10 - - - -
26/11:00pm 13.6 ENE 5 8 1027.3 - 0.0 - - 10 - - - -
26/10:30pm 14.0 ENE 6 10 1027.5 - 0.0 - - 10 - - - -
26/10:00pm 14.7 ENE 7 12 1027.5 - 0.0 - - 10 - - - -
26/09:30pm 15.2 ENE 6 9 1027.7 - 0.0 - - 10 - - - -
26/09:00pm 14.9 E 7 12 1027.6 F 0.0 - - 10 - - - -
26/08:30pm 15.3 ESE 6 10 1027.8 - 0.0 - - 10 - - - -
26/08:00pm 16.0 E 7 11 1027.9 - 0.0 - - 10 - - - -
26/07:30pm 16.7 E 8 12 1027.8 - 0.0 - - 10 - - - -
26/07:00pm 17.3 E 10 16 1027.4 - 0.0 - - 10 - - - -
26/06:30pm 17.8 ESE 13 19 1027.1 - 0.0 - - 10 - - - -
26/06:00pm 17.8 ESE 15 20 1026.8 F 0.0 Fine Partly cloudy 30 - - - -
26/05:31pm 18.1 ESE 15 25 1026.7 - 0.0 - - 10 - - - -
26/05:30pm 18.2 ESE 16 25 1026.7 - 0.0 - - 10 - - - -
26/05:25pm 18.2 ESE 15 25 1026.5 - 0.0 - - 10 - - - -
26/05:00pm 18.6 ESE 16 23 1026.6 - 0.0 - - 10 - - - -
26/04:30pm 19.2 ESE 17 23 1026.4 - 0.0 - - 10 - - - -
26/04:00pm 19.6 ESE 16 24 1026.7 - 0.0 - - 10 - - - -
26/03:30pm 20.2 ESE 18 24 1026.6 - 0.0 - - 10 - - - -
26/03:00pm 20.6 ESE 17 24 1026.7 F 0.0 Fine Clear 35 - - - -
26/02:30pm 21.2 SE 16 23 1027.1 - 0.0 - - 10 - - - -
26/02:00pm 21.5 ESE 16 22 1027.3 - 0.0 - - 10 - - - -
26/01:30pm 22.0 ESE 13 23 1027.6 - 0.0 - - 10 - - - -
26/01:00pm 22.9 SE 10 14 1028.1 - 0.0 - - 10 - - - -
26/12:30pm 21.8 E 8 15 1028.5 - 0.0 - - 10 - - - -
26/12:00pm 21.7 ENE 7 12 1028.9 F 0.0 Fine Mostly clear 35 - - - -
26/11:30am 21.0 ENE 8 14 1029.5 - 0.0 - - 10 - - - -
26/11:00am 20.7 NE 7 11 1030.1 - 0.0 - Mostly clear 10 - - - -
26/10:30am 19.5 NNE 9 15 1030.6 - 0.0 - - 10 - - - -
26/10:00am 19.3 NE 9 14 1031.0 - 0.0 - Mostly clear 10 - - - -
26/09:30am 18.5 NE 10 14 1031.4 - 0.0 - Mostly clear 10 - - - -
26/09:00am 18.2 NE 6 9 1031.5 F 0.0 Fine Mostly clear 30 - - - -
26/08:30am 15.7 NNE 5 7 1031.7 - 0.0 - Mostly clear 10 - - - -
26/08:00am 13.0 N 4 5 1031.7 - 0.0 - - 10 - - - -
26/07:30am 10.8 N 2 3 1031.4 - 0.0 - Mostly clear 10 - - - -
26/07:00am 8.8 NNW 1 4 1031.3 - 0.0 - Mostly clear 10 - - - -
26/06:30am 8.1 N 4 5 1031.0 - 0.0 - Mostly clear 10 - - - -

Other Formats:

Comma delimited format used in spreadsheet applications
http://www.bom.gov.au/fwo/IDW60701/IDW60701.94638.axf

JavaScript Object Notation format (JSON) in row-major order
http://www.bom.gov.au/fwo/IDW60701/IDW60701.94638.json